Time;durP1;ratioP1;P1;durP2;ratioP2;P2;SDS_P1;SDS_P2;PMS_P1;PMS_P2;Temp;Humidity;BMP_temperature;BMP_pressure;BME280_temperature;BME280_humidity;BME280_pressure;Samples;Min_cycle;Max_cycle;Signal;HPM_P1;HPM_P2
2023/05/05 00:00:51;;;;;;;8.17;7.87;;;22.00;56.80;;;;;;5095136;28;20860;-59
2023/05/05 00:03:19;;;;;;;7.93;7.63;;;22.00;56.90;;;;;;5095029;28;20800;-58
2023/05/05 00:05:46;;;;;;;8.00;7.53;;;22.00;56.90;;;;;;5093161;28;20443;-57
2023/05/05 00:08:14;;;;;;;8.33;8.00;;;21.90;56.90;;;;;;5094481;28;20978;-60
2023/05/05 00:10:42;;;;;;;8.23;7.93;;;21.90;56.90;;;;;;5094725;28;20460;-59
2023/05/05 00:13:09;;;;;;;7.67;7.47;;;21.90;56.90;;;;;;5094303;28;20485;-59
2023/05/05 00:15:36;;;;;;;7.87;7.50;;;21.90;57.10;;;;;;5089750;28;20507;-58
2023/05/05 00:18:03;;;;;;;8.83;8.43;;;21.90;57.10;;;;;;5094458;28;20497;-56
2023/05/05 00:20:30;;;;;;;8.33;8.03;;;21.90;57.30;;;;;;5084164;28;20471;-59
2023/05/05 00:22:57;;;;;;;8.90;8.60;;;21.90;57.30;;;;;;5073908;28;21034;-59
2023/05/05 00:25:25;;;;;;;8.13;7.83;;;21.90;57.30;;;;;;5074214;28;20531;-59
2023/05/05 00:27:52;;;;;;;8.00;7.70;;;21.90;57.90;;;;;;5074062;28;20863;-58
2023/05/05 00:30:19;;;;;;;8.63;8.27;;;21.90;57.40;;;;;;5073958;28;20526;-59
2023/05/05 00:32:48;;;;;;;7.50;7.30;;;21.90;57.50;;;;;;5073692;28;20502;-58
2023/05/05 00:35:15;;;;;;;8.67;8.20;;;21.90;57.50;;;;;;5074115;28;21103;-59
2023/05/05 00:37:42;;;;;;;7.80;7.50;;;21.80;57.50;;;;;;5073693;28;20497;-58
2023/05/05 00:40:10;;;;;;;7.30;7.00;;;21.90;57.60;;;;;;5074070;28;20812;-59
2023/05/05 00:42:43;;;;;;;7.63;7.33;;;21.90;57.70;;;;;;5073393;28;20487;-58
2023/05/05 00:45:11;;;;;;;8.77;8.47;;;21.90;57.70;;;;;;5073616;28;20813;-59
2023/05/05 00:47:38;;;;;;;8.10;7.80;;;21.90;57.70;;;;;;5073722;28;20855;-58
2023/05/05 00:50:08;;;;;;;8.23;7.90;;;21.90;57.80;;;;;;5073841;28;20471;-59
2023/05/05 00:52:36;;;;;;;7.13;6.93;;;21.90;57.80;;;;;;5073328;28;20479;-59
2023/05/05 00:55:03;;;;;;;7.13;6.83;;;21.80;57.90;;;;;;5073297;28;20882;-58
2023/05/05 00:57:31;;;;;;;7.67;7.37;;;21.80;57.80;;;;;;5073160;28;20952;-59
2023/05/05 00:59:59;;;;;;;8.63;8.23;;;21.80;57.90;;;;;;5073061;28;20455;-58
2023/05/05 01:02:26;;;;;;;7.40;7.10;;;21.80;57.90;;;;;;5073332;28;20443;-58
2023/05/05 01:04:54;;;;;;;7.53;7.23;;;21.80;57.90;;;;;;5073091;28;21023;-59
2023/05/05 01:07:31;;;;;;;7.57;7.20;;;21.80;57.90;;;;;;5073455;28;20479;-59
2023/05/05 01:10:06;;;;;;;6.80;6.60;;;21.80;57.90;;;;;;5072972;28;20451;-58
2023/05/05 01:12:40;;;;;;;7.73;7.40;;;21.80;58.00;;;;;;5073060;28;20454;-57
2023/05/05 01:15:15;;;;;;;6.97;6.67;;;21.80;58.00;;;;;;5073232;28;20447;-59
2023/05/05 01:17:55;;;;;;;6.90;6.53;;;21.80;58.10;;;;;;5073140;28;20479;-59
2023/05/05 01:20:30;;;;;;;7.07;6.77;;;21.80;58.20;;;;;;5072987;28;20458;-58
2023/05/05 01:23:02;;;;;;;8.20;7.80;;;21.80;58.20;;;;;;5073201;28;20592;-59
2023/05/05 01:26:08;;;;;;;7.27;6.97;;;21.80;58.20;;;;;;5073119;28;20447;-59
2023/05/05 01:29:02;;;;;;;7.43;7.13;;;21.80;58.30;;;;;;5030680;28;20859;-59
2023/05/05 01:31:52;;;;;;;7.43;7.13;;;21.80;58.40;;;;;;5073007;28;20518;-59
2023/05/05 01:34:24;;;;;;;8.17;7.77;;;21.80;58.40;;;;;;5072823;28;21004;-58
2023/05/05 01:36:58;;;;;;;7.10;6.80;;;21.80;58.50;;;;;;5073055;28;20534;-60
2023/05/05 01:39:30;;;;;;;7.33;7.03;;;21.80;58.50;;;;;;5088705;28;20482;-58
2023/05/05 01:42:00;;;;;;;6.70;6.50;;;21.80;58.60;;;;;;5093574;28;21000;-59
2023/05/05 01:44:28;;;;;;;7.37;7.07;;;21.80;58.60;;;;;;5093242;28;20462;-60
2023/05/05 01:46:59;;;;;;;7.13;6.83;;;21.70;58.60;;;;;;5093030;28;20784;-57
2023/05/05 01:49:27;;;;;;;7.53;7.23;;;21.70;58.70;;;;;;5076792;28;20538;-58
2023/05/05 01:51:56;;;;;;;6.90;6.60;;;21.80;58.70;;;;;;5073008;28;20577;-59
2023/05/05 01:54:24;;;;;;;7.47;7.20;;;21.70;58.60;;;;;;5073084;28;20570;-58
2023/05/05 01:56:54;;;;;;;7.10;6.80;;;21.80;58.70;;;;;;5073158;28;20949;-60
2023/05/05 01:59:21;;;;;;;7.27;6.87;;;21.80;58.80;;;;;;5072784;28;20471;-59
2023/05/05 02:01:50;;;;;;;7.83;7.43;;;21.70;58.70;;;;;;5073298;28;20530;-58
2023/05/05 02:04:21;;;;;;;7.10;6.70;;;21.70;58.80;;;;;;5073194;28;20987;-59
2023/05/05 02:06:51;;;;;;;7.57;7.37;;;21.70;58.70;;;;;;5080639;28;20447;-57
2023/05/05 02:09:20;;;;;;;7.50;7.20;;;21.70;58.70;;;;;;5092924;28;20457;-59
2023/05/05 02:11:48;;;;;;;7.80;7.47;;;21.70;58.80;;;;;;5093872;28;20852;-59
2023/05/05 02:14:16;;;;;;;6.60;6.30;;;21.70;58.70;;;;;;5097215;28;20568;-59
2023/05/05 02:16:44;;;;;;;8.00;7.70;;;21.70;58.80;;;;;;5090701;28;21082;-58
2023/05/05 02:19:12;;;;;;;7.83;7.43;;;21.70;58.80;;;;;;5081336;28;20478;-60
2023/05/05 02:21:41;;;;;;;7.43;7.13;;;21.70;58.90;;;;;;5081879;28;20498;-58
2023/05/05 02:24:08;;;;;;;7.23;6.90;;;21.70;59.00;;;;;;5081441;28;20495;-60
2023/05/05 02:26:39;;;;;;;7.30;7.10;;;21.70;59.20;;;;;;5081968;28;20479;-61
2023/05/05 02:29:09;;;;;;;7.50;7.20;;;21.70;59.20;;;;;;5082383;28;20466;-61
2023/05/05 02:31:42;;;;;;;8.17;7.77;;;21.70;59.40;;;;;;5080768;28;20551;-61
2023/05/05 02:34:09;;;;;;;7.87;7.40;;;21.70;59.40;;;;;;5077005;28;20566;-58
2023/05/05 02:36:39;;;;;;;7.30;7.10;;;21.70;59.50;;;;;;5076783;28;20479;-58
2023/05/05 02:39:13;;;;;;;7.60;7.30;;;21.70;59.50;;;;;;5076663;28;20879;-61
2023/05/05 02:41:43;;;;;;;7.03;6.77;;;21.70;59.60;;;;;;5076997;28;20526;-58
2023/05/05 02:44:12;;;;;;;7.60;7.30;;;21.70;59.70;;;;;;5076022;28;20465;-59
2023/05/05 02:46:39;;;;;;;7.13;6.83;;;21.70;59.70;;;;;;5089622;28;20879;-58
2023/05/05 02:49:06;;;;;;;7.33;7.03;;;21.70;59.70;;;;;;5096778;28;20443;-61
2023/05/05 02:51:33;;;;;;;7.60;7.27;;;21.70;59.70;;;;;;5096863;28;20470;-59
2023/05/05 02:54:00;;;;;;;8.03;7.63;;;21.60;59.70;;;;;;5089358;28;20479;-59
2023/05/05 02:56:37;;;;;;;7.37;7.07;;;21.60;59.80;;;;;;5076292;28;20967;-58
2023/05/05 02:59:11;;;;;;;6.37;6.17;;;21.60;59.70;;;;;;5076351;28;20530;-60
2023/05/05 03:01:50;;;;;;;8.20;7.70;;;21.70;59.90;;;;;;5076311;28;20478;-59
2023/05/05 03:04:22;;;;;;;7.10;6.77;;;21.60;59.90;;;;;;5075824;28;20492;-58
2023/05/05 03:06:51;;;;;;;7.30;7.07;;;21.60;59.90;;;;;;5076423;28;20474;-59
2023/05/05 03:09:25;;;;;;;7.83;7.53;;;21.60;59.90;;;;;;5076131;28;20481;-59
2023/05/05 03:12:00;;;;;;;7.83;7.43;;;21.60;60.00;;;;;;5075886;28;21594;-58
2023/05/05 03:14:30;;;;;;;8.00;7.40;;;21.60;60.00;;;;;;5076033;28;20581;-59
2023/05/05 03:16:57;;;;;;;8.83;8.33;;;21.60;60.20;;;;;;5075914;28;20479;-59
2023/05/05 03:19:26;;;;;;;8.77;8.30;;;21.60;60.20;;;;;;5075793;28;20531;-59
2023/05/05 03:21:53;;;;;;;8.77;8.40;;;21.50;60.50;;;;;;5078586;28;20483;-59
2023/05/05 03:24:21;;;;;;;8.23;7.93;;;21.50;60.70;;;;;;5095544;28;20482;-60
2023/05/05 03:26:49;;;;;;;8.30;7.80;;;21.50;60.80;;;;;;5096142;28;20453;-58
2023/05/05 03:29:17;;;;;;;8.90;8.20;;;21.50;60.90;;;;;;5095982;28;20533;-57
2023/05/05 03:31:44;;;;;;;8.70;8.20;;;21.50;61.30;;;;;;5094244;28;20474;-56
2023/05/05 03:34:11;;;;;;;8.57;7.87;;;21.50;61.50;;;;;;5075808;28;20482;-60
2023/05/05 03:36:38;;;;;;;9.00;8.10;;;21.50;61.80;;;;;;5076922;28;20466;-61
2023/05/05 03:39:05;;;;;;;8.73;7.93;;;21.50;62.00;;;;;;5076817;28;20534;-59
2023/05/05 03:41:32;;;;;;;8.90;8.50;;;21.40;62.10;;;;;;5076360;28;20483;-60
2023/05/05 03:43:59;;;;;;;8.07;7.67;;;21.40;62.40;;;;;;5076282;28;20502;-58
2023/05/05 03:46:27;;;;;;;8.00;7.70;;;21.40;62.70;;;;;;5076153;28;20474;-59
2023/05/05 03:48:55;;;;;;;9.20;8.70;;;21.40;63.10;;;;;;5076050;28;20960;-60
2023/05/05 03:51:23;;;;;;;8.63;8.20;;;21.40;63.30;;;;;;5076183;28;20444;-58
2023/05/05 03:53:50;;;;;;;8.77;8.20;;;21.30;63.60;;;;;;5075984;28;20487;-60
2023/05/05 03:56:17;;;;;;;8.97;8.47;;;21.30;63.70;;;;;;5076239;28;20447;-60
2023/05/05 03:58:44;;;;;;;8.30;7.90;;;21.30;63.60;;;;;;5075761;28;20980;-59
2023/05/05 04:01:11;;;;;;;10.57;10.17;;;21.30;63.80;;;;;;5085632;28;20450;-59
2023/05/05 04:03:39;;;;;;;8.80;8.10;;;21.30;63.90;;;;;;5096402;28;20546;-59
2023/05/05 04:06:06;;;;;;;8.83;8.33;;;21.20;64.10;;;;;;5096164;28;20521;-59
2023/05/05 04:08:33;;;;;;;9.10;8.70;;;21.20;64.50;;;;;;5095954;28;20470;-57
2023/05/05 04:11:02;;;;;;;9.20;8.80;;;21.20;64.70;;;;;;5088339;28;20482;-57
2023/05/05 04:13:29;;;;;;;8.80;8.10;;;21.30;64.30;;;;;;5075968;28;20463;-60
2023/05/05 04:15:55;;;;;;;9.47;8.90;;;21.30;63.90;;;;;;5075993;28;20447;-59
2023/05/05 04:18:23;;;;;;;9.90;9.30;;;21.30;63.80;;;;;;5075712;28;20479;-59
2023/05/05 04:20:51;;;;;;;9.50;8.90;;;21.40;63.60;;;;;;5083993;28;20438;-58
2023/05/05 04:23:18;;;;;;;8.80;8.13;;;21.40;63.80;;;;;;5090913;28;21026;-59
2023/05/05 04:25:45;;;;;;;10.43;9.43;;;21.40;64.50;;;;;;5096238;28;20670;-59
2023/05/05 04:28:12;;;;;;;7.90;7.40;;;21.50;64.70;;;;;;5088312;28;20450;-58
2023/05/05 04:30:39;;;;;;;10.27;9.57;;;21.50;65.50;;;;;;5082812;28;20478;-59
2023/05/05 04:33:06;;;;;;;9.17;8.47;;;21.50;68.40;;;;;;5075461;28;20506;-59
2023/05/05 04:35:32;;;;;;;11.13;8.60;;;21.50;68.90;;;;;;5074108;28;20521;-60
2023/05/05 04:38:01;;;;;;;9.17;8.47;;;21.50;68.40;;;;;;5074958;28;20478;-60
2023/05/05 04:40:27;;;;;;;9.33;8.80;;;21.50;69.30;;;;;;5075338;28;20522;-61
2023/05/05 04:42:54;;;;;;;8.70;8.20;;;21.50;69.00;;;;;;5075051;28;20499;-59
2023/05/05 04:45:21;;;;;;;8.87;8.17;;;21.50;68.80;;;;;;5075226;28;20487;-59
2023/05/05 04:47:48;;;;;;;9.37;8.53;;;21.50;68.60;;;;;;5075430;28;20880;-60
2023/05/05 04:50:15;;;;;;;9.37;8.67;;;21.50;68.10;;;;;;5075442;28;20494;-60
2023/05/05 04:52:42;;;;;;;10.30;9.17;;;21.50;67.70;;;;;;5075340;28;20487;-60
2023/05/05 04:55:11;;;;;;;10.17;9.30;;;21.50;67.60;;;;;;5075211;28;21251;-59
2023/05/05 04:57:38;;;;;;;9.50;8.70;;;21.50;67.20;;;;;;5074985;28;20479;-60
2023/05/05 05:00:06;;;;;;;10.10;9.30;;;21.50;67.20;;;;;;5075200;28;20610;-60
2023/05/05 05:02:33;;;;;;;11.13;10.33;;;21.50;67.30;;;;;;5075449;28;20512;-61
2023/05/05 05:05:00;;;;;;;9.63;8.57;;;21.50;66.90;;;;;;5075127;28;20581;-60
2023/05/05 05:07:26;;;;;;;8.40;7.90;;;21.50;66.70;;;;;;5075718;28;20475;-60
2023/05/05 05:09:53;;;;;;;9.10;8.20;;;21.50;66.70;;;;;;5075415;28;20486;-60
2023/05/05 05:12:22;;;;;;;9.83;9.10;;;21.50;66.40;;;;;;5074978;28;20496;-60
2023/05/05 05:14:49;;;;;;;9.33;8.73;;;21.50;66.50;;;;;;5075879;28;20515;-60
2023/05/05 05:17:15;;;;;;;9.67;8.90;;;21.50;66.20;;;;;;5075947;28;20479;-60
2023/05/05 05:19:42;;;;;;;10.30;9.30;;;21.50;66.00;;;;;;5074746;28;20502;-60
2023/05/05 05:22:09;;;;;;;9.33;8.87;;;21.50;65.90;;;;;;5074531;28;20472;-60
2023/05/05 05:24:37;;;;;;;9.57;9.07;;;21.50;65.50;;;;;;5074626;28;20463;-59
2023/05/05 05:27:06;;;;;;;10.03;9.23;;;21.50;65.40;;;;;;5074928;28;20467;-60
2023/05/05 05:29:34;;;;;;;9.47;8.87;;;21.50;65.40;;;;;;5074279;28;20463;-59
2023/05/05 05:32:01;;;;;;;9.17;8.70;;;21.50;65.10;;;;;;5074593;28;20530;-59
2023/05/05 05:34:28;;;;;;;9.50;8.90;;;21.50;65.00;;;;;;5074146;28;20519;-57
2023/05/05 05:36:55;;;;;;;10.23;9.10;;;21.50;64.70;;;;;;5073480;28;20477;-59
2023/05/05 05:39:22;;;;;;;10.43;9.63;;;21.50;64.70;;;;;;5073718;28;20526;-58
2023/05/05 05:41:49;;;;;;;9.20;8.70;;;21.50;64.40;;;;;;5074099;28;20533;-58
2023/05/05 05:44:16;;;;;;;9.80;9.10;;;21.50;64.30;;;;;;5073900;28;20487;-58
2023/05/05 05:46:44;;;;;;;9.93;9.00;;;21.50;64.10;;;;;;5073966;28;20523;-57
2023/05/05 05:49:11;;;;;;;9.40;9.00;;;21.50;64.00;;;;;;5073891;28;20439;-59
2023/05/05 05:51:37;;;;;;;9.20;8.80;;;21.50;63.90;;;;;;5073700;28;20479;-57
2023/05/05 05:54:04;;;;;;;9.60;8.80;;;21.50;63.70;;;;;;5073647;28;20574;-57
2023/05/05 05:56:31;;;;;;;9.17;8.77;;;21.50;63.70;;;;;;5073545;28;20479;-58
2023/05/05 05:58:58;;;;;;;9.30;8.80;;;21.50;63.50;;;;;;5073559;28;20992;-58
2023/05/05 06:01:26;;;;;;;9.73;9.23;;;21.50;63.40;;;;;;5073613;28;20867;-59
2023/05/05 06:03:54;;;;;;;9.90;8.87;;;21.50;63.30;;;;;;5073274;28;20472;-59
2023/05/05 06:06:21;;;;;;;9.63;9.13;;;21.50;63.20;;;;;;5073388;28;20527;-59
2023/05/05 06:08:48;;;;;;;9.23;8.60;;;21.50;63.10;;;;;;5073680;28;20537;-59
2023/05/05 06:11:15;;;;;;;9.73;9.33;;;21.50;62.90;;;;;;5073727;28;20482;-59
2023/05/05 06:13:42;;;;;;;9.17;8.63;;;21.50;62.80;;;;;;5073389;28;20498;-60
2023/05/05 06:16:08;;;;;;;10.00;9.30;;;21.50;62.70;;;;;;5073713;28;20518;-58
2023/05/05 06:18:35;;;;;;;9.33;8.67;;;21.50;62.60;;;;;;5073350;28;20479;-59
2023/05/05 06:21:04;;;;;;;9.43;9.03;;;21.50;62.50;;;;;;5073138;28;20483;-60
2023/05/05 06:23:31;;;;;;;8.90;8.50;;;21.50;62.40;;;;;;5073318;28;20554;-59
2023/05/05 06:25:58;;;;;;;8.70;8.23;;;21.50;62.30;;;;;;5073417;28;20519;-59
2023/05/05 06:28:24;;;;;;;9.30;9.00;;;21.50;62.20;;;;;;5072981;28;20953;-60
2023/05/05 06:30:51;;;;;;;9.67;8.97;;;21.50;62.20;;;;;;5073288;28;20986;-59
2023/05/05 06:33:18;;;;;;;9.40;8.90;;;21.50;62.00;;;;;;5072911;28;20483;-59
2023/05/05 06:35:46;;;;;;;9.30;8.90;;;21.50;62.00;;;;;;5072956;28;20574;-58
2023/05/05 06:38:14;;;;;;;9.47;8.90;;;21.50;62.00;;;;;;5073099;28;20937;-56
2023/05/05 06:40:42;;;;;;;9.40;9.00;;;21.50;61.90;;;;;;5072872;28;20538;-59
2023/05/05 06:43:08;;;;;;;9.83;9.23;;;21.50;61.70;;;;;;5073108;28;20459;-58
2023/05/05 06:45:35;;;;;;;9.30;8.80;;;21.50;62.50;;;;;;5073084;28;20481;-58
2023/05/05 06:48:02;;;;;;;9.53;9.03;;;21.50;61.60;;;;;;5072940;28;20479;-60
2023/05/05 06:50:29;;;;;;;9.03;8.63;;;21.50;61.60;;;;;;5072895;28;20483;-59
2023/05/05 06:52:56;;;;;;;9.03;8.63;;;21.50;61.40;;;;;;5072996;28;20557;-59
2023/05/05 06:55:25;;;;;;;8.47;8.17;;;21.50;61.40;;;;;;5072987;28;20550;-57
2023/05/05 06:57:51;;;;;;;10.10;9.60;;;21.50;61.30;;;;;;5073801;28;20534;-59
2023/05/05 07:00:19;;;;;;;8.37;8.07;;;21.50;61.30;;;;;;5076766;28;20518;-59
2023/05/05 07:02:47;;;;;;;9.70;9.30;;;21.50;61.20;;;;;;5076192;28;20467;-58
2023/05/05 07:05:13;;;;;;;9.10;8.80;;;21.50;61.10;;;;;;5076701;28;20941;-56
2023/05/05 07:07:50;;;;;;;9.20;8.80;;;21.50;61.00;;;;;;5076243;28;20486;-59
2023/05/05 07:10:17;;;;;;;9.53;9.13;;;21.50;60.90;;;;;;5076165;28;20446;-58
2023/05/05 07:12:45;;;;;;;9.00;8.60;;;21.50;60.90;;;;;;5076165;28;20506;-57
2023/05/05 07:15:12;;;;;;;9.30;8.90;;;21.50;60.90;;;;;;5075908;28;20486;-60
2023/05/05 07:17:39;;;;;;;9.27;8.80;;;21.50;60.90;;;;;;5075925;28;20472;-57
2023/05/05 07:20:07;;;;;;;9.53;9.03;;;21.50;60.80;;;;;;5076195;28;20526;-59
2023/05/05 07:22:34;;;;;;;10.27;9.83;;;21.50;60.70;;;;;;5076399;28;20581;-56
2023/05/05 07:25:02;;;;;;;8.90;8.50;;;21.50;60.70;;;;;;5076055;28;20530;-58
2023/05/05 07:27:29;;;;;;;8.73;8.40;;;21.50;60.70;;;;;;5075793;28;20474;-58
2023/05/05 07:29:58;;;;;;;9.80;9.30;;;21.50;60.50;;;;;;5076389;28;20451;-58
2023/05/05 07:32:25;;;;;;;8.57;8.27;;;21.50;60.50;;;;;;5075599;28;20534;-57
2023/05/05 07:34:52;;;;;;;9.53;9.03;;;21.50;60.50;;;;;;5076050;28;20522;-58
2023/05/05 07:37:19;;;;;;;9.80;9.43;;;21.50;60.50;;;;;;5076344;28;20448;-59
2023/05/05 07:39:47;;;;;;;8.60;8.30;;;21.50;60.40;;;;;;5076800;28;20489;-59
2023/05/05 07:42:14;;;;;;;9.00;8.60;;;21.50;60.30;;;;;;5076442;28;20539;-60
2023/05/05 07:44:41;;;;;;;8.37;8.07;;;21.50;60.30;;;;;;5075539;28;20448;-59
2023/05/05 07:47:09;;;;;;;9.60;9.20;;;21.50;60.20;;;;;;5075920;28;20478;-58
2023/05/05 07:49:36;;;;;;;9.93;9.53;;;21.50;60.10;;;;;;5075515;28;20443;-59
2023/05/05 07:52:03;;;;;;;9.43;8.90;;;21.50;60.10;;;;;;5075814;28;20483;-57
2023/05/05 07:54:30;;;;;;;9.30;8.67;;;21.50;60.10;;;;;;5075041;28;20613;-58
2023/05/05 07:56:57;;;;;;;8.97;8.67;;;21.50;60.10;;;;;;5075606;28;20479;-58
2023/05/05 07:59:24;;;;;;;9.60;9.20;;;21.50;60.00;;;;;;5075104;28;20486;-59
2023/05/05 08:01:51;;;;;;;9.33;8.93;;;21.50;60.00;;;;;;5075466;28;20530;-58
2023/05/05 08:04:19;;;;;;;8.70;8.40;;;21.50;60.00;;;;;;5075279;28;20495;-56
2023/05/05 08:06:46;;;;;;;9.77;9.37;;;21.50;60.00;;;;;;5075126;28;20918;-58
2023/05/05 08:09:13;;;;;;;8.83;8.53;;;21.50;59.90;;;;;;5074163;28;20530;-59
2023/05/05 08:11:40;;;;;;;9.17;8.77;;;21.50;59.90;;;;;;5075510;28;20475;-57
2023/05/05 08:14:07;;;;;;;8.80;8.47;;;21.50;59.90;;;;;;5074995;28;20491;-60
2023/05/05 08:16:34;;;;;;;8.63;8.33;;;21.50;59.80;;;;;;5074854;28;20582;-59
2023/05/05 08:19:02;;;;;;;8.93;8.63;;;21.50;59.80;;;;;;5075616;28;20471;-58
2023/05/05 08:21:30;;;;;;;8.80;8.50;;;21.50;59.80;;;;;;5074803;28;20475;-60
2023/05/05 08:23:57;;;;;;;9.43;9.03;;;21.50;59.80;;;;;;5075024;28;20467;-58
2023/05/05 08:26:24;;;;;;;9.10;8.77;;;21.50;59.70;;;;;;5075183;28;20535;-59
2023/05/05 08:28:54;;;;;;;9.33;8.93;;;21.50;59.70;;;;;;5074842;28;20474;-59
2023/05/05 08:31:21;;;;;;;8.33;8.03;;;21.50;59.70;;;;;;5074826;28;20611;-58
2023/05/05 08:33:48;;;;;;;8.20;8.00;;;21.50;59.60;;;;;;5074336;28;20475;-57
2023/05/05 08:36:15;;;;;;;8.93;8.53;;;21.50;59.60;;;;;;5074970;28;20474;-59
2023/05/05 08:38:43;;;;;;;8.90;8.60;;;21.50;59.60;;;;;;5074332;28;20534;-59
2023/05/05 08:41:13;;;;;;;9.00;8.70;;;21.60;59.70;;;;;;5074651;28;20866;-58
2023/05/05 08:43:40;;;;;;;8.63;8.33;;;21.60;59.70;;;;;;5074631;28;21026;-59
2023/05/05 08:46:11;;;;;;;8.67;8.37;;;21.60;59.70;;;;;;5074653;28;20451;-58
2023/05/05 08:48:40;;;;;;;8.93;8.63;;;21.60;59.70;;;;;;5074225;28;20439;-58
2023/05/05 08:51:09;;;;;;;8.70;8.50;;;21.50;59.60;;;;;;5074524;28;20852;-59
2023/05/05 08:53:47;;;;;;;8.60;8.30;;;21.50;59.50;;;;;;5074168;28;20487;-59
2023/05/05 08:56:14;;;;;;;8.60;8.40;;;21.60;59.60;;;;;;5074073;28;20812;-57
2023/05/05 08:58:42;;;;;;;8.63;8.43;;;21.60;59.50;;;;;;5074030;28;20550;-58
2023/05/05 09:01:10;;;;;;;8.90;8.57;;;21.60;59.60;;;;;;5074217;28;20458;-56
2023/05/05 09:03:37;;;;;;;8.97;8.67;;;21.60;60.10;;;;;;5074041;28;20554;-58
2023/05/05 09:06:04;;;;;;;8.87;8.47;;;21.60;59.50;;;;;;5073999;28;20439;-57
2023/05/05 09:08:32;;;;;;;8.50;8.30;;;21.60;59.50;;;;;;5074342;28;20486;-59
2023/05/05 09:11:01;;;;;;;8.77;8.47;;;21.60;59.40;;;;;;5073977;28;20554;-59
2023/05/05 09:13:30;;;;;;;8.90;8.60;;;21.60;59.40;;;;;;5073714;28;20467;-60
2023/05/05 09:15:57;;;;;;;8.30;8.10;;;21.60;59.40;;;;;;5074037;28;20490;-58
2023/05/05 09:18:24;;;;;;;9.37;8.60;;;21.60;59.40;;;;;;5073641;28;20986;-57
2023/05/05 09:20:51;;;;;;;8.87;8.57;;;21.60;59.40;;;;;;5073526;28;20530;-58
2023/05/05 09:23:19;;;;;;;8.50;8.30;;;21.60;59.40;;;;;;5073855;28;20501;-57
2023/05/05 09:25:47;;;;;;;8.60;8.30;;;21.60;59.40;;;;;;5073860;28;20545;-59
2023/05/05 09:28:17;;;;;;;7.90;7.70;;;21.60;59.30;;;;;;5073610;28;20482;-57
2023/05/05 09:30:46;;;;;;;9.17;8.87;;;21.60;59.40;;;;;;5073530;28;20530;-59
2023/05/05 09:33:14;;;;;;;8.90;8.50;;;21.60;59.30;;;;;;5073243;28;20536;-58
2023/05/05 09:35:52;;;;;;;8.83;8.43;;;21.60;59.30;;;;;;5073236;28;20546;-58
2023/05/05 09:38:19;;;;;;;8.10;7.90;;;21.70;59.40;;;;;;5072941;28;20522;-58
2023/05/05 09:40:47;;;;;;;9.40;9.10;;;21.70;59.30;;;;;;5073101;28;20788;-58
2023/05/05 09:43:16;;;;;;;8.70;8.40;;;21.70;59.40;;;;;;5073494;28;20471;-57
2023/05/05 09:45:43;;;;;;;8.50;8.30;;;21.70;59.30;;;;;;5073213;28;20956;-59
2023/05/05 09:48:25;;;;;;;8.80;8.50;;;21.70;59.30;;;;;;5072932;28;20471;-55
2023/05/05 09:50:52;;;;;;;8.57;8.37;;;21.70;59.30;;;;;;5073160;28;20449;-58
2023/05/05 09:53:19;;;;;;;8.10;7.90;;;21.70;59.20;;;;;;5073267;28;20567;-59
2023/05/05 09:55:56;;;;;;;8.73;8.47;;;21.70;59.20;;;;;;5073393;28;20566;-59
2023/05/05 09:58:25;;;;;;;8.77;8.47;;;21.70;59.20;;;;;;5073218;28;20798;-59
2023/05/05 10:00:53;;;;;;;8.90;8.70;;;21.70;59.20;;;;;;5073104;28;20883;-57
2023/05/05 10:03:20;;;;;;;8.53;8.33;;;21.70;59.70;;;;;;5073162;28;20554;-59
2023/05/05 10:05:49;;;;;;;8.10;7.80;;;21.70;59.20;;;;;;5072858;28;20746;-58
2023/05/05 10:08:17;;;;;;;8.40;8.20;;;21.70;59.20;;;;;;5072635;28;20534;-59
2023/05/05 10:10:49;;;;;;;9.20;8.70;;;21.70;59.20;;;;;;5073109;28;20478;-58
2023/05/05 10:13:19;;;;;;;8.40;8.10;;;21.70;59.20;;;;;;5073086;28;21055;-58
2023/05/05 10:15:48;;;;;;;8.00;7.80;;;21.70;59.20;;;;;;5072929;28;21099;-57
2023/05/05 10:18:19;;;;;;;8.47;8.20;;;21.70;59.10;;;;;;5072828;28;20452;-59
2023/05/05 10:20:51;;;;;;;8.60;8.40;;;21.70;59.10;;;;;;5072624;28;20827;-58
2023/05/05 10:23:20;;;;;;;8.73;8.43;;;21.70;59.10;;;;;;5072943;28;20554;-58
2023/05/05 10:25:53;;;;;;;8.57;8.27;;;21.70;59.20;;;;;;5073081;28;20804;-59
2023/05/05 10:28:31;;;;;;;8.57;8.37;;;21.70;59.10;;;;;;5073140;28;20475;-58
2023/05/05 10:31:02;;;;;;;8.60;8.33;;;21.80;59.20;;;;;;5072984;28;20530;-59
2023/05/05 10:33:36;;;;;;;8.53;8.33;;;21.80;59.20;;;;;;5074767;28;20478;-59
2023/05/05 10:36:06;;;;;;;8.90;8.50;;;21.80;59.20;;;;;;5077361;28;20486;-57
2023/05/05 10:38:33;;;;;;;8.83;8.53;;;21.80;59.20;;;;;;5076989;28;20885;-59
2023/05/05 10:41:01;;;;;;;8.30;8.00;;;21.80;59.10;;;;;;5076918;28;20439;-60
2023/05/05 10:43:29;;;;;;;7.87;7.63;;;21.80;59.10;;;;;;5076794;28;20459;-59
2023/05/05 10:45:56;;;;;;;9.00;8.60;;;21.80;59.10;;;;;;5076956;28;20610;-59
2023/05/05 10:48:32;;;;;;;8.10;7.90;;;21.80;59.10;;;;;;5076958;28;20872;-57
2023/05/05 10:51:08;;;;;;;8.30;8.10;;;21.80;59.10;;;;;;5077040;28;20863;-59
2023/05/05 10:53:42;;;;;;;8.43;8.13;;;21.80;59.10;;;;;;5076422;28;20475;-57
2023/05/05 10:56:24;;;;;;;8.33;8.13;;;21.80;59.10;;;;;;5076577;28;20565;-58
2023/05/05 10:58:51;;;;;;;8.63;8.33;;;21.80;59.10;;;;;;5076406;28;20443;-58
2023/05/05 11:01:30;;;;;;;7.53;7.33;;;21.80;59.10;;;;;;5076345;28;21000;-58
2023/05/05 11:04:17;;;;;;;8.13;7.90;;;21.80;59.10;;;;;;5076410;28;20462;-58
2023/05/05 11:07:22;;;;;;;8.57;8.27;;;21.80;59.10;;;;;;5076532;28;20450;-59
2023/05/05 11:09:56;;;;;;;7.40;7.30;;;21.80;59.10;;;;;;5076594;28;20447;-59
2023/05/05 11:12:23;;;;;;;7.90;7.70;;;21.80;59.10;;;;;;5076656;28;20501;-58
2023/05/05 11:15:23;;;;;;;7.60;7.40;;;21.80;59.60;;;;;;5076608;28;20500;-60
2023/05/05 11:17:50;;;;;;;7.50;7.30;;;21.80;59.10;;;;;;5076773;28;20839;-60
2023/05/05 11:20:39;;;;;;;7.83;7.63;;;21.80;59.10;;;;;;5076879;28;20486;-59
2023/05/05 11:23:24;;;;;;;7.20;7.00;;;21.80;59.10;;;;;;5076541;28;20465;-59
2023/05/05 11:25:51;;;;;;;7.73;7.53;;;21.80;59.10;;;;;;5076213;28;20435;-59
2023/05/05 11:28:20;;;;;;;7.67;7.47;;;21.80;59.10;;;;;;5075807;28;20482;-58
2023/05/05 11:31:16;;;;;;;8.43;8.13;;;21.80;59.10;;;;;;5076211;28;20443;-57
2023/05/05 11:33:43;;;;;;;7.67;7.40;;;21.80;59.10;;;;;;5076358;28;20474;-59
2023/05/05 11:36:12;;;;;;;7.60;7.40;;;21.80;59.10;;;;;;5075711;28;20562;-58
2023/05/05 11:38:59;;;;;;;8.03;7.83;;;21.80;59.10;;;;;;5075589;28;21005;-60
2023/05/05 11:41:48;;;;;;;8.60;8.30;;;21.80;59.10;;;;;;5072473;28;20490;-59
2023/05/05 11:44:17;;;;;;;7.97;7.77;;;21.90;59.20;;;;;;5064603;28;20554;-61
2023/05/05 11:47:17;;;;;;;7.87;7.67;;;21.80;59.20;;;;;;5074062;28;20538;-58
2023/05/05 11:49:44;;;;;;;7.57;7.40;;;21.90;59.30;;;;;;5073820;28;20471;-60
2023/05/05 11:52:14;;;;;;;7.63;7.43;;;21.90;59.30;;;;;;5073919;28;20527;-58
2023/05/05 11:54:46;;;;;;;7.60;7.40;;;21.80;59.20;;;;;;5073991;28;20971;-58
2023/05/05 11:57:14;;;;;;;7.40;7.20;;;21.80;59.20;;;;;;5073835;28;20479;-59
2023/05/05 11:59:53;;;;;;;7.40;7.20;;;21.90;59.30;;;;;;5073661;28;20483;-59
2023/05/05 12:02:21;;;;;;;7.30;7.10;;;21.90;59.20;;;;;;5073797;28;20869;-57
2023/05/05 12:04:48;;;;;;;6.83;6.70;;;21.90;59.20;;;;;;5073791;28;20475;-60
2023/05/05 12:07:16;;;;;;;7.43;7.13;;;21.90;59.20;;;;;;5073662;28;20869;-58
2023/05/05 12:09:44;;;;;;;6.73;6.53;;;21.90;59.20;;;;;;5073499;28;20523;-59
2023/05/05 12:12:11;;;;;;;7.27;7.07;;;21.90;59.20;;;;;;5073543;28;20937;-58
2023/05/05 12:14:46;;;;;;;7.00;6.80;;;21.90;59.20;;;;;;5073358;28;20550;-58
2023/05/05 12:17:13;;;;;;;6.80;6.60;;;21.90;59.10;;;;;;5073377;28;20504;-59
2023/05/05 12:19:51;;;;;;;6.80;6.70;;;21.90;59.10;;;;;;5073368;28;20538;-56
2023/05/05 12:22:21;;;;;;;8.03;7.83;;;21.90;59.20;;;;;;5073323;28;20534;-60
2023/05/05 12:24:55;;;;;;;7.67;7.47;;;21.90;59.20;;;;;;5073272;28;20519;-58
2023/05/05 12:27:23;;;;;;;7.77;7.57;;;21.90;59.20;;;;;;5073178;28;20526;-61
2023/05/05 12:29:50;;;;;;;7.00;6.80;;;21.90;59.20;;;;;;5073184;28;20531;-58
2023/05/05 12:32:22;;;;;;;7.50;7.27;;;21.90;59.20;;;;;;5072946;28;20526;-57
2023/05/05 12:34:52;;;;;;;7.47;7.27;;;21.90;59.20;;;;;;5073003;28;20471;-59
2023/05/05 12:37:21;;;;;;;7.43;7.23;;;21.90;59.20;;;;;;5073048;28;20511;-58
2023/05/05 12:39:49;;;;;;;7.60;7.40;;;21.90;59.20;;;;;;5072868;28;20989;-61
2023/05/05 12:42:17;;;;;;;7.00;6.80;;;22.00;59.20;;;;;;5072891;28;20530;-56
2023/05/05 12:44:45;;;;;;;7.70;7.50;;;22.00;59.20;;;;;;5072905;28;20439;-60
2023/05/05 12:47:12;;;;;;;7.50;7.30;;;21.90;59.20;;;;;;5072918;28;20447;-58
2023/05/05 12:49:46;;;;;;;7.13;6.93;;;22.00;59.20;;;;;;5072749;28;20526;-60
2023/05/05 12:52:15;;;;;;;7.20;7.10;;;22.00;59.30;;;;;;5072861;28;20956;-58
2023/05/05 12:54:53;;;;;;;7.10;6.90;;;21.90;59.30;;;;;;5072523;28;20513;-60
2023/05/05 12:57:20;;;;;;;7.10;6.90;;;21.90;59.30;;;;;;5072123;28;20838;-58